createdAt,value
2018-08-22T00:00:08.699Z,24.10
2018-08-22T00:02:37.441Z,24.00
2018-08-22T00:05:06.137Z,24.00
2018-08-22T00:07:35.018Z,24.00
2018-08-22T00:10:03.846Z,23.90
2018-08-22T00:12:32.499Z,23.80
2018-08-22T00:15:01.237Z,23.80
2018-08-22T00:17:29.952Z,23.80
2018-08-22T00:19:58.744Z,23.90
2018-08-22T00:22:27.697Z,23.80
2018-08-22T00:24:56.429Z,23.70
2018-08-22T00:27:25.331Z,23.70
2018-08-22T00:29:54.016Z,23.60
2018-08-22T00:32:22.762Z,23.70
2018-08-22T00:34:51.702Z,23.70
2018-08-22T00:37:20.530Z,23.80
2018-08-22T00:39:49.260Z,23.70
2018-08-22T00:42:23.575Z,23.60
2018-08-22T00:44:52.984Z,23.70
2018-08-22T00:47:22.001Z,23.60
2018-08-22T00:49:50.973Z,23.60
2018-08-22T00:52:19.865Z,23.70
2018-08-22T00:54:48.672Z,23.70
2018-08-22T00:57:17.532Z,23.70
2018-08-22T00:59:46.426Z,23.70
2018-08-22T01:02:15.901Z,23.70
2018-08-22T01:04:44.823Z,23.70
2018-08-22T01:07:13.730Z,23.50
2018-08-22T01:09:43.510Z,23.50
2018-08-22T01:12:12.199Z,23.50
2018-08-22T01:14:40.871Z,23.40
2018-08-22T01:17:09.700Z,23.40
2018-08-22T01:19:38.399Z,23.30
2018-08-22T01:22:07.782Z,23.30
2018-08-22T01:24:36.525Z,23.20
2018-08-22T01:27:05.249Z,23.20
2018-08-22T01:29:33.951Z,23.30
2018-08-22T01:32:02.798Z,23.20
2018-08-22T01:34:31.728Z,23.20
2018-08-22T01:37:00.392Z,23.10
2018-08-22T01:39:29.072Z,23.10
2018-08-22T01:41:57.783Z,23.10
2018-08-22T01:44:26.516Z,23.10
2018-08-22T01:46:55.246Z,23.10
2018-08-22T01:49:23.957Z,23.00
2018-08-22T01:51:52.684Z,23.00
2018-08-22T01:54:21.418Z,22.90
2018-08-22T01:56:50.054Z,22.80
2018-08-22T01:59:18.893Z,22.80
2018-08-22T02:01:47.560Z,22.80
2018-08-22T02:04:16.326Z,22.80
2018-08-22T02:06:45.065Z,22.80
2018-08-22T02:09:14.864Z,22.80
2018-08-22T02:11:43.530Z,22.80
2018-08-22T02:14:12.505Z,22.70
2018-08-22T02:16:41.265Z,22.70
2018-08-22T02:19:11.448Z,22.70
2018-08-22T02:21:40.076Z,22.60
2018-08-22T02:24:10.002Z,22.60
2018-08-22T02:26:38.716Z,22.60
2018-08-22T02:29:08.434Z,22.60
2018-08-22T02:31:37.803Z,22.70
2018-08-22T02:34:06.608Z,22.60
2018-08-22T02:36:35.848Z,22.60
2018-08-22T02:39:06.169Z,22.60
2018-08-22T02:41:34.947Z,22.60
2018-08-22T02:44:03.610Z,22.60
2018-08-22T02:46:33.348Z,22.50
2018-08-22T02:49:02.325Z,22.50
2018-08-22T02:51:31.021Z,22.40
2018-08-22T02:53:59.712Z,22.40
2018-08-22T02:56:28.510Z,22.40
2018-08-22T02:58:57.412Z,22.30
2018-08-22T03:01:26.213Z,22.30
2018-08-22T03:03:54.997Z,22.30
2018-08-22T03:06:23.793Z,22.40
2018-08-22T03:08:53.454Z,22.30
2018-08-22T03:11:22.216Z,22.20
2018-08-22T03:13:51.036Z,22.20
2018-08-22T03:16:19.946Z,22.20
2018-08-22T03:18:48.752Z,22.10
2018-08-22T03:21:17.618Z,22.10
2018-08-22T03:23:46.431Z,22.10
2018-08-22T03:26:15.300Z,22.10
2018-08-22T03:28:44.052Z,22.10
2018-08-22T03:31:15.217Z,22.00
2018-08-22T03:33:44.009Z,22.00
2018-08-22T03:36:12.867Z,22.00
2018-08-22T03:38:41.618Z,22.00
2018-08-22T03:41:10.966Z,22.00
2018-08-22T03:43:39.809Z,21.90
2018-08-22T03:46:08.609Z,21.90
2018-08-22T03:48:37.389Z,22.00
2018-08-22T03:51:06.142Z,21.90
2018-08-22T03:53:34.881Z,21.90
2018-08-22T03:56:04.329Z,21.90
2018-08-22T03:58:32.985Z,21.90
2018-08-22T04:01:01.758Z,21.80
2018-08-22T04:03:30.738Z,21.80
2018-08-22T04:05:59.565Z,21.80
2018-08-22T04:08:28.384Z,21.80
2018-08-22T04:10:57.255Z,21.70
2018-08-22T04:13:26.088Z,21.80
2018-08-22T04:15:54.947Z,21.70
2018-08-22T04:18:23.788Z,21.70
2018-08-22T04:20:52.556Z,21.80
2018-08-22T04:23:21.418Z,21.80
2018-08-22T04:25:50.213Z,21.80
2018-08-22T04:28:20.102Z,21.60
2018-08-22T04:30:49.932Z,21.60
2018-08-22T04:33:18.688Z,21.70
2018-08-22T04:35:47.697Z,21.70
2018-08-22T04:38:16.398Z,21.70
2018-08-22T04:40:46.349Z,21.70
2018-08-22T04:43:15.251Z,21.70
2018-08-22T04:45:44.565Z,21.70
2018-08-22T04:48:13.530Z,21.70
2018-08-22T04:50:59.690Z,21.60
2018-08-22T04:53:28.637Z,21.60
2018-08-22T04:55:57.461Z,21.60
2018-08-22T04:58:26.287Z,21.60
2018-08-22T05:00:55.046Z,21.80
2018-08-22T05:03:23.939Z,21.70
2018-08-22T05:05:52.749Z,21.70
2018-08-22T05:08:21.602Z,21.60
2018-08-22T05:10:50.412Z,21.90
2018-08-22T05:13:19.284Z,22.00
2018-08-22T05:15:48.511Z,21.90
2018-08-22T05:18:17.285Z,22.10
2018-08-22T05:20:46.244Z,22.20
2018-08-22T05:23:15.516Z,22.40
2018-08-22T05:25:45.156Z,22.50
2018-08-22T05:28:14.472Z,22.50
2018-08-22T05:30:43.538Z,22.60
2018-08-22T05:33:12.375Z,22.60
2018-08-22T05:35:41.243Z,22.70
2018-08-22T05:38:10.842Z,22.70
2018-08-22T05:40:40.493Z,22.80
2018-08-22T05:43:09.367Z,22.90
2018-08-22T05:45:39.218Z,22.90
2018-08-22T05:48:08.068Z,22.90
2018-08-22T05:50:36.952Z,23.10
2018-08-22T05:53:05.756Z,23.20
2018-08-22T05:55:34.628Z,23.30
2018-08-22T05:58:03.412Z,23.40
2018-08-22T06:00:32.516Z,23.40
2018-08-22T06:03:01.402Z,23.50
2018-08-22T06:05:30.103Z,23.60
2018-08-22T06:07:58.976Z,23.90
2018-08-22T06:10:27.801Z,23.80
2018-08-22T06:12:57.178Z,23.90
2018-08-22T06:15:25.940Z,24.10
2018-08-22T06:17:54.657Z,24.40
2018-08-22T06:20:23.530Z,24.60
2018-08-22T06:22:52.450Z,24.80
2018-08-22T06:25:22.247Z,24.90
2018-08-22T06:27:51.493Z,25.00
2018-08-22T06:30:22.482Z,25.20
2018-08-22T06:32:51.211Z,25.30
2018-08-22T06:35:19.971Z,25.50
2018-08-22T06:37:48.955Z,25.60
2018-08-22T06:40:17.920Z,25.90
2018-08-22T06:42:47.171Z,26.00
2018-08-22T06:45:17.049Z,26.20
2018-08-22T06:47:45.992Z,26.50
2018-08-22T06:50:15.001Z,27.00
2018-08-22T06:52:44.572Z,27.60
2018-08-22T06:55:13.412Z,28.50
2018-08-22T06:57:42.201Z,29.50
2018-08-22T07:00:11.033Z,30.30
2018-08-22T07:02:40.229Z,31.00
2018-08-22T07:05:09.317Z,31.80
2018-08-22T07:07:38.611Z,32.50
2018-08-22T07:10:07.605Z,33.40
2018-08-22T07:12:36.374Z,34.10
2018-08-22T07:15:05.714Z,34.70
2018-08-22T07:17:34.669Z,34.90
2018-08-22T07:20:03.985Z,34.70
2018-08-22T07:22:32.804Z,34.70
2018-08-22T07:25:01.620Z,34.20
2018-08-22T07:27:30.439Z,33.70
2018-08-22T07:29:59.148Z,33.10
2018-08-22T07:32:27.923Z,32.50
2018-08-22T07:34:56.702Z,32.00
2018-08-22T07:37:25.609Z,31.70
2018-08-22T07:39:54.497Z,31.70
2018-08-22T07:42:23.548Z,31.40
2018-08-22T07:44:52.355Z,30.90
2018-08-22T07:47:21.243Z,30.40
2018-08-22T07:49:50.018Z,30.20
2018-08-22T07:52:19.115Z,30.10
2018-08-22T07:54:48.149Z,30.10
2018-08-22T07:57:20.764Z,30.60
2018-08-22T07:59:50.204Z,31.10
2018-08-22T08:02:19.167Z,31.20
2018-08-22T08:04:48.102Z,31.20
2018-08-22T08:07:16.999Z,31.10
2018-08-22T08:09:45.826Z,31.10
2018-08-22T08:12:15.926Z,31.00
2018-08-22T08:14:49.930Z,30.80
2018-08-22T08:17:18.900Z,30.70
2018-08-22T08:19:48.218Z,30.50
2018-08-22T08:22:17.153Z,30.70
2018-08-22T08:24:46.233Z,30.60
2018-08-22T08:27:16.007Z,30.60
2018-08-22T08:29:44.953Z,30.50
2018-08-22T08:32:13.775Z,30.80
2018-08-22T08:34:42.691Z,30.70
2018-08-22T08:37:12.661Z,30.80
2018-08-22T08:39:41.676Z,30.90
2018-08-22T08:42:10.562Z,30.50
2018-08-22T08:44:39.416Z,30.10
2018-08-22T08:47:09.660Z,30.40
2018-08-22T08:49:38.544Z,30.80
2018-08-22T08:52:07.395Z,31.00
2018-08-22T08:54:36.188Z,31.10
2018-08-22T08:57:05.340Z,31.00
2018-08-22T08:59:34.157Z,30.90
2018-08-22T09:02:03.049Z,30.60
2018-08-22T09:04:31.960Z,30.60
2018-08-22T09:07:01.604Z,30.70
2018-08-22T09:09:30.580Z,30.60
2018-08-22T09:12:00.444Z,30.90
2018-08-22T09:14:29.660Z,31.00
2018-08-22T09:16:59.282Z,30.80
2018-08-22T09:19:28.515Z,30.20
2018-08-22T09:21:57.382Z,30.30
2018-08-22T09:24:26.328Z,30.40
2018-08-22T09:26:55.133Z,30.50
2018-08-22T09:29:24.871Z,30.60
2018-08-22T09:31:53.769Z,30.80
2018-08-22T09:34:22.673Z,31.00
2018-08-22T09:36:51.403Z,31.20
2018-08-22T09:39:20.245Z,32.00
2018-08-22T09:41:49.077Z,32.70
2018-08-22T09:44:17.893Z,33.10
2018-08-22T09:46:46.931Z,33.40
2018-08-22T09:49:15.977Z,34.20
2018-08-22T09:51:44.886Z,34.00
2018-08-22T09:54:13.802Z,33.70
2018-08-22T09:56:45.723Z,33.50
2018-08-22T09:59:14.693Z,33.10
2018-08-22T10:01:44.532Z,32.90
2018-08-22T10:04:13.333Z,33.20
2018-08-22T10:06:47.176Z,33.80
2018-08-22T10:09:19.585Z,34.40
2018-08-22T10:11:48.401Z,34.20
2018-08-22T10:14:17.252Z,34.20
2018-08-22T10:16:46.159Z,33.70
2018-08-22T10:19:14.889Z,33.30
2018-08-22T10:21:43.718Z,33.80
2018-08-22T10:24:12.627Z,34.30
2018-08-22T10:26:41.590Z,34.80
2018-08-22T10:29:10.393Z,35.60
2018-08-22T10:31:39.195Z,36.30
2018-08-22T10:34:08.067Z,36.70
2018-08-22T10:36:36.876Z,37.30
2018-08-22T10:39:07.900Z,37.50
2018-08-22T10:41:36.707Z,37.40
2018-08-22T10:44:05.667Z,37.10
2018-08-22T10:46:34.608Z,36.60
2018-08-22T10:49:03.758Z,36.00
2018-08-22T10:51:32.612Z,36.00
2018-08-22T10:54:01.451Z,35.90
2018-08-22T10:56:30.465Z,35.50
2018-08-22T10:58:59.284Z,35.10
2018-08-22T11:01:28.069Z,35.40
2018-08-22T11:03:57.054Z,35.70
2018-08-22T11:06:26.048Z,35.90
2018-08-22T11:08:55.631Z,36.10
2018-08-22T11:11:24.628Z,36.20
2018-08-22T11:13:53.609Z,35.90
2018-08-22T11:16:22.497Z,35.90
2018-08-22T11:18:51.404Z,35.80
2018-08-22T11:21:31.121Z,35.30
2018-08-22T11:24:11.089Z,35.00
2018-08-22T11:26:50.927Z,34.60
2018-08-22T11:29:30.704Z,34.10
2018-08-22T11:32:10.435Z,33.50
2018-08-22T11:34:45.353Z,33.00
2018-08-22T11:37:15.350Z,32.80
2018-08-22T11:39:45.579Z,32.70
2018-08-22T11:42:14.490Z,32.60
2018-08-22T11:44:43.482Z,32.40
2018-08-22T11:47:12.322Z,32.30
2018-08-22T11:49:41.125Z,32.30
2018-08-22T11:52:10.995Z,32.30
2018-08-22T11:54:40.038Z,31.90
2018-08-22T11:57:08.918Z,31.70
2018-08-22T11:59:37.681Z,31.70
2018-08-22T12:02:06.533Z,31.70
2018-08-22T12:04:35.475Z,31.70
2018-08-22T12:07:04.277Z,31.80
2018-08-22T12:09:33.035Z,31.60
2018-08-22T12:12:01.906Z,31.50
2018-08-22T12:14:30.706Z,31.30
2018-08-22T12:16:59.553Z,31.10
2018-08-22T12:19:28.340Z,31.30
2018-08-22T12:21:57.175Z,31.30
2018-08-22T12:24:26.193Z,31.30
2018-08-22T12:26:56.048Z,31.10
2018-08-22T12:29:24.898Z,31.10
2018-08-22T12:31:54.273Z,31.00
2018-08-22T12:34:23.218Z,31.10
2018-08-22T12:36:51.998Z,31.10
2018-08-22T12:39:20.987Z,31.20
2018-08-22T12:41:49.860Z,31.30
2018-08-22T12:44:18.744Z,31.30
2018-08-22T12:46:51.396Z,31.10
2018-08-22T12:49:20.467Z,30.90
2018-08-22T12:51:49.363Z,30.80
2018-08-22T12:54:18.361Z,30.80
2018-08-22T12:56:47.268Z,30.80
2018-08-22T12:59:16.173Z,30.80
2018-08-22T13:01:45.017Z,30.80
2018-08-22T13:04:13.898Z,30.90
2018-08-22T13:06:42.803Z,30.90
2018-08-22T13:09:15.647Z,30.90
2018-08-22T13:11:51.073Z,31.00
2018-08-22T13:14:20.114Z,30.90
2018-08-22T13:16:49.060Z,30.80
2018-08-22T13:19:17.855Z,30.70
2018-08-22T13:21:46.754Z,30.70
2018-08-22T13:24:15.590Z,30.60
2018-08-22T13:26:44.981Z,30.60
2018-08-22T13:29:13.875Z,30.60
2018-08-22T13:31:42.764Z,30.70
2018-08-22T13:34:11.769Z,30.70
2018-08-22T13:36:40.898Z,30.60
2018-08-22T13:39:10.851Z,30.60
2018-08-22T13:41:39.601Z,30.50
2018-08-22T13:44:08.634Z,30.40
2018-08-22T13:46:37.550Z,30.50
2018-08-22T13:49:06.524Z,30.40
2018-08-22T13:51:35.361Z,30.50
2018-08-22T13:54:04.361Z,30.50
2018-08-22T13:56:33.290Z,30.50
2018-08-22T13:59:02.140Z,30.50
2018-08-22T14:01:31.139Z,30.50
2018-08-22T14:03:59.780Z,30.40
2018-08-22T14:06:28.789Z,30.60
2018-08-22T14:08:57.770Z,30.60
2018-08-22T14:11:26.712Z,30.70
2018-08-22T14:13:55.689Z,30.70
2018-08-22T14:16:24.544Z,30.80
2018-08-22T14:18:53.369Z,30.70
2018-08-22T14:21:22.369Z,30.70
2018-08-22T14:23:51.326Z,30.50
2018-08-22T14:26:20.568Z,30.60
2018-08-22T14:28:49.489Z,30.60
2018-08-22T14:31:18.396Z,30.60
2018-08-22T14:33:47.449Z,30.60
2018-08-22T14:36:16.428Z,30.40
2018-08-22T14:38:45.292Z,30.60
2018-08-22T14:41:14.148Z,30.70
2018-08-22T14:43:42.985Z,30.60
2018-08-22T14:46:11.953Z,30.60
2018-08-22T14:48:40.872Z,30.60
2018-08-22T14:51:09.737Z,30.70
2018-08-22T14:53:38.572Z,30.70
2018-08-22T14:56:07.524Z,30.60
2018-08-22T14:58:36.385Z,30.50
2018-08-22T15:01:08.009Z,30.50
2018-08-22T15:03:37.081Z,30.50
2018-08-22T15:06:05.627Z,30.60
2018-08-22T15:08:34.440Z,30.60
2018-08-22T15:11:03.347Z,30.60
2018-08-22T15:13:32.236Z,30.60
2018-08-22T15:16:01.198Z,30.60
2018-08-22T15:18:30.125Z,30.60
2018-08-22T15:20:58.963Z,30.70
2018-08-22T15:23:27.875Z,30.60
2018-08-22T15:25:56.877Z,30.60
2018-08-22T15:28:25.897Z,30.60
2018-08-22T15:30:56.381Z,30.50
2018-08-22T15:33:25.269Z,30.60
2018-08-22T15:35:54.468Z,30.40
2018-08-22T15:38:23.319Z,30.50
2018-08-22T15:40:52.176Z,30.50
2018-08-22T15:43:21.359Z,30.60
2018-08-22T15:45:50.221Z,30.50
2018-08-22T15:48:19.283Z,30.60
2018-08-22T15:50:48.442Z,30.70
2018-08-22T15:53:17.472Z,30.60
2018-08-22T15:55:46.407Z,30.60
2018-08-22T15:58:15.394Z,30.60
2018-08-22T16:00:50.130Z,30.60
2018-08-22T16:03:19.627Z,30.60
2018-08-22T16:05:49.414Z,30.60
2018-08-22T16:08:19.816Z,30.60
2018-08-22T16:10:53.097Z,30.60
2018-08-22T16:13:28.470Z,30.60
2018-08-22T16:16:00.171Z,30.40
2018-08-22T16:18:29.069Z,30.40
2018-08-22T16:21:00.113Z,30.40
2018-08-22T16:23:34.733Z,30.30
2018-08-22T16:26:04.926Z,30.50
2018-08-22T16:28:46.128Z,30.40
2018-08-22T16:31:14.966Z,30.40
2018-08-22T16:33:43.826Z,30.30
2018-08-22T16:36:17.457Z,30.20
2018-08-22T16:38:46.391Z,30.10
2018-08-22T16:41:16.605Z,30.10
2018-08-22T16:43:48.692Z,30.20
2018-08-22T16:46:17.797Z,30.10
2018-08-22T16:48:50.190Z,30.10
2018-08-22T16:51:19.639Z,30.10
2018-08-22T16:53:57.930Z,30.10
2018-08-22T16:56:27.920Z,30.10
2018-08-22T16:59:01.883Z,30.10
2018-08-22T17:01:31.184Z,30.20
2018-08-22T17:04:00.003Z,30.10
2018-08-22T17:06:29.494Z,30.00
2018-08-22T17:08:58.866Z,30.10
2018-08-22T17:11:27.788Z,30.10
2018-08-22T17:13:56.827Z,30.10
2018-08-22T17:16:26.104Z,30.10
2018-08-22T17:18:55.071Z,30.10
2018-08-22T17:21:23.856Z,30.10
2018-08-22T17:23:52.633Z,30.00
2018-08-22T17:26:22.487Z,29.90
2018-08-22T17:28:53.153Z,29.90
2018-08-22T17:31:23.121Z,29.90
2018-08-22T17:33:55.581Z,29.90
2018-08-22T17:36:24.580Z,29.90
2018-08-22T17:38:55.009Z,29.90
2018-08-22T17:41:25.226Z,29.90
2018-08-22T17:43:59.812Z,29.90
2018-08-22T17:46:31.069Z,29.90
2018-08-22T17:48:59.983Z,29.90
2018-08-22T17:51:29.080Z,29.90
2018-08-22T17:53:58.031Z,29.90
2018-08-22T17:56:29.009Z,29.90
2018-08-22T17:58:57.942Z,30.00
2018-08-22T18:01:29.370Z,29.90
2018-08-22T18:03:59.246Z,29.90
2018-08-22T18:06:28.378Z,29.90
2018-08-22T18:08:57.356Z,29.80
2018-08-22T18:11:26.454Z,29.80
2018-08-22T18:13:57.786Z,29.80
2018-08-22T18:16:26.650Z,29.80
2018-08-22T18:19:01.310Z,29.80
2018-08-22T18:21:46.400Z,29.80
2018-08-22T18:24:15.384Z,29.80
2018-08-22T18:26:46.593Z,29.70
2018-08-22T18:29:15.721Z,29.60
2018-08-22T18:31:44.565Z,29.60
2018-08-22T18:34:13.412Z,29.60
2018-08-22T18:36:42.384Z,29.60
2018-08-22T18:39:14.096Z,29.50
2018-08-22T18:41:43.073Z,29.50
2018-08-22T18:44:11.973Z,29.40
2018-08-22T18:46:40.817Z,29.40
2018-08-22T18:49:09.622Z,29.30
2018-08-22T18:51:38.598Z,29.30
2018-08-22T18:54:07.605Z,29.30
2018-08-22T18:56:36.425Z,29.20
2018-08-22T18:59:16.165Z,29.20
2018-08-22T19:01:45.018Z,29.10
2018-08-22T19:04:13.944Z,29.10
2018-08-22T19:06:43.021Z,29.00
2018-08-22T19:09:11.913Z,29.00
2018-08-22T19:11:40.884Z,29.00
2018-08-22T19:14:09.775Z,28.90
2018-08-22T19:16:38.581Z,28.90
2018-08-22T19:19:07.517Z,28.80
2018-08-22T19:21:36.253Z,28.70
2018-08-22T19:24:06.375Z,28.70
2018-08-22T19:26:35.353Z,28.70
2018-08-22T19:29:05.975Z,28.60
2018-08-22T19:31:36.016Z,28.50
2018-08-22T19:34:04.913Z,28.50
2018-08-22T19:36:33.881Z,28.40
2018-08-22T19:39:02.988Z,28.40
2018-08-22T19:41:32.910Z,28.30
2018-08-22T19:44:01.883Z,28.20
2018-08-22T19:46:30.624Z,28.20
2018-08-22T19:49:00.876Z,28.10
2018-08-22T19:51:29.981Z,28.10
2018-08-22T19:54:05.107Z,28.00
2018-08-22T19:56:41.487Z,27.90
2018-08-22T19:59:10.497Z,27.90
2018-08-22T20:01:39.407Z,27.90
2018-08-22T20:04:08.367Z,27.80
2018-08-22T20:06:37.287Z,27.70
2018-08-22T20:09:06.840Z,27.70
2018-08-22T20:11:35.646Z,27.60
2018-08-22T20:14:06.297Z,27.50
2018-08-22T20:16:35.070Z,27.50
2018-08-22T20:19:05.601Z,27.50
2018-08-22T20:21:36.348Z,27.50
2018-08-22T20:24:06.731Z,27.40
2018-08-22T20:26:36.036Z,27.40
2018-08-22T20:29:05.411Z,27.30
2018-08-22T20:31:35.708Z,27.30
2018-08-22T20:34:08.062Z,27.30
2018-08-22T20:36:37.064Z,27.30
2018-08-22T20:39:10.106Z,27.20
2018-08-22T20:41:40.663Z,27.20
2018-08-22T20:44:11.839Z,27.20
2018-08-22T20:46:41.962Z,27.20
2018-08-22T20:49:10.973Z,27.10
2018-08-22T20:51:39.876Z,27.10
2018-08-22T20:54:10.872Z,27.10
2018-08-22T20:56:46.217Z,27.10
2018-08-22T20:59:15.680Z,27.10
2018-08-22T21:01:47.839Z,27.00
2018-08-22T21:04:16.672Z,27.00
2018-08-22T21:06:45.710Z,27.00
2018-08-22T21:09:14.723Z,26.90
2018-08-22T21:11:44.140Z,26.90
2018-08-22T21:14:13.213Z,26.90
2018-08-22T21:16:42.602Z,26.80
2018-08-22T21:19:12.053Z,26.80
2018-08-22T21:21:40.929Z,26.80
2018-08-22T21:24:09.888Z,26.80
2018-08-22T21:26:51.118Z,26.70
2018-08-22T21:29:20.403Z,26.70
2018-08-22T21:31:49.845Z,26.70
2018-08-22T21:34:20.813Z,26.60
2018-08-22T21:36:50.334Z,26.60
2018-08-22T21:39:27.262Z,26.60
2018-08-22T21:41:56.418Z,26.60
2018-08-22T21:44:25.544Z,26.60
2018-08-22T21:47:00.289Z,26.50
2018-08-22T21:49:29.637Z,26.50
2018-08-22T21:52:00.000Z,26.50
2018-08-22T21:54:28.902Z,26.40
2018-08-22T21:56:57.761Z,26.40
2018-08-22T21:59:26.645Z,26.30
2018-08-22T22:02:00.685Z,26.30
2018-08-22T22:04:32.773Z,26.20
2018-08-22T22:07:01.844Z,26.20
2018-08-22T22:09:30.717Z,26.20
2018-08-22T22:12:00.489Z,26.20
2018-08-22T22:14:32.430Z,26.10
2018-08-22T22:17:02.214Z,26.00
2018-08-22T22:19:32.384Z,25.90
2018-08-22T22:22:01.826Z,25.80
2018-08-22T22:24:30.589Z,25.80
2018-08-22T22:27:00.426Z,25.90
2018-08-22T22:29:32.452Z,25.90
2018-08-22T22:32:01.371Z,25.80
2018-08-22T22:34:30.387Z,25.80
2018-08-22T22:36:59.285Z,25.80
2018-08-22T22:39:37.596Z,25.80
2018-08-22T22:42:42.591Z,25.70
2018-08-22T22:45:12.245Z,25.90
2018-08-22T22:47:41.229Z,25.90
2018-08-22T22:50:10.138Z,25.90
2018-08-22T22:52:40.291Z,25.90
2018-08-22T22:55:10.097Z,25.90
2018-08-22T22:57:40.182Z,25.90
2018-08-22T23:00:10.258Z,25.90
2018-08-22T23:02:39.184Z,25.90
2018-08-22T23:05:08.442Z,25.90
2018-08-22T23:07:39.255Z,25.90
2018-08-22T23:10:15.131Z,25.80
2018-08-22T23:12:45.044Z,25.80
2018-08-22T23:15:15.824Z,25.70
2018-08-22T23:17:45.917Z,25.70
2018-08-22T23:20:34.921Z,25.70
2018-08-22T23:23:05.658Z,25.60
2018-08-22T23:25:34.444Z,25.60
2018-08-22T23:28:03.213Z,25.60
2018-08-22T23:30:36.958Z,25.50
2018-08-22T23:33:06.558Z,25.40
2018-08-22T23:35:36.335Z,25.40
2018-08-22T23:38:07.477Z,25.40
2018-08-22T23:40:36.754Z,25.30
2018-08-22T23:43:05.586Z,25.30
2018-08-22T23:45:37.195Z,25.30
2018-08-22T23:48:06.606Z,25.30
2018-08-22T23:50:47.348Z,25.30
2018-08-22T23:53:16.188Z,25.30
2018-08-22T23:55:44.997Z,25.20
2018-08-22T23:58:13.981Z,25.10
